首页
METAR-TAF:

METAR-TAF

机场 :

山胡桃, 北卡罗来纳州, 美国

纬度: 35-44-32N, 经度: 081-22-56W, 海拔: 362米

当前天气观测

该预报发布于1小时和3分钟前的18:53 UTC
风速4节,风向多变
温度 32°C
湿度 43%
气压 1020 hPa
能見度: 16.1公里
少量云层高于6000英尺

METAR: KHKY 251853Z VRB04KT 10SM FEW060 32/18 A3013 RMK AO2 SLP178 T03170183

时间: 15:56 (19:56 UTC)

预报

该预报发布于2小时和36分钟前的17:20 UTC
预报有效从25日的 18点(UTC)到 26日的 18点(UTC)
风速5节,风向西南
能見度: 10公里
散云层高于6000英尺
从 25日的 2000点(UTC)
风速6节,风向西转西南
能見度: 10公里
散云层高于6000英尺, 积雨云.
多云层高于20000英尺
附近有雷暴
从 26日的 0000点(UTC)
风速3节,风向西
能見度: 10公里
少量云层高于7000英尺
散云层高于20000英尺
从 26日的 0500点(UTC)
风速3节,风向西转西北
能見度: 10公里
少量云层高于25000英尺
从 26日的 1500点(UTC)
风速7节,风向西
能見度: 10公里
少量云层高于25000英尺

TAF: KHKY 251720Z 2518/2618 22005KT P6SM SCT060 FM252000 24006KT P6SM VCTS SCT060CB BKN200 FM260000 28003KT P6SM FEW070 SCT200 FM260500 30003KT P6SM FEW250 FM261500 27007KT P6SM FEW250

超过4000个机场的气象观测和天气预报(METAR&TAF报告)。

可查询的气象台以黄色和红色小点在地图上表示。

将鼠标移到小点上方,可查看气象台名称。

然后点击查看天气观测和预报。

如需切换地图:点击带黑十字的绿色按钮放大地图;点击带横线的绿色按钮缩小地图;或者点击绿色箭头查看邻近地区的地图。


METAR-TAF: